sensor_id;sensor_type;location;lat;lon;timestamp;P1;durP1;ratioP1;P2;durP2;ratioP2
52730;SDS011;38624;53.242;6.974;2023-10-19T00:02:05;28.50;;;15.93;;
52730;SDS011;38624;53.242;6.974;2023-10-19T00:04:32;22.23;;;14.25;;
52730;SDS011;38624;53.242;6.974;2023-10-19T00:07:00;21.23;;;13.25;;
52730;SDS011;38624;53.242;6.974;2023-10-19T00:09:26;21.52;;;14.50;;
52730;SDS011;38624;53.242;6.974;2023-10-19T00:12:00;22.02;;;14.00;;
52730;SDS011;38624;53.242;6.974;2023-10-19T00:14:27;21.45;;;14.90;;
52730;SDS011;38624;53.242;6.974;2023-10-19T00:16:53;21.50;;;14.45;;
52730;SDS011;38624;53.242;6.974;2023-10-19T00:19:21;22.25;;;14.35;;
52730;SDS011;38624;53.242;6.974;2023-10-19T00:21:52;20.70;;;12.93;;
52730;SDS011;38624;53.242;6.974;2023-10-19T00:24:20;24.42;;;15.82;;
52730;SDS011;38624;53.242;6.974;2023-10-19T00:26:49;29.55;;;17.40;;
52730;SDS011;38624;53.242;6.974;2023-10-19T00:29:18;28.77;;;17.38;;
52730;SDS011;38624;53.242;6.974;2023-10-19T00:31:57;34.15;;;18.58;;
52730;SDS011;38624;53.242;6.974;2023-10-19T00:34:23;32.78;;;19.50;;
52730;SDS011;38624;53.242;6.974;2023-10-19T00:39:16;38.97;;;19.45;;
52730;SDS011;38624;53.242;6.974;2023-10-19T00:41:52;32.70;;;19.08;;
52730;SDS011;38624;53.242;6.974;2023-10-19T00:44:22;35.42;;;19.55;;
52730;SDS011;38624;53.242;6.974;2023-10-19T00:46:56;36.10;;;19.80;;
52730;SDS011;38624;53.242;6.974;2023-10-19T00:49:36;33.17;;;20.02;;
52730;SDS011;38624;53.242;6.974;2023-10-19T00:52:03;35.17;;;19.70;;
52730;SDS011;38624;53.242;6.974;2023-10-19T00:54:44;30.35;;;18.90;;
52730;SDS011;38624;53.242;6.974;2023-10-19T00:57:14;28.65;;;18.48;;
52730;SDS011;38624;53.242;6.974;2023-10-19T00:59:44;27.75;;;18.38;;
52730;SDS011;38624;53.242;6.974;2023-10-19T01:02:26;30.20;;;18.92;;
52730;SDS011;38624;53.242;6.974;2023-10-19T01:04:53;28.17;;;18.35;;
52730;SDS011;38624;53.242;6.974;2023-10-19T01:07:28;26.92;;;18.10;;
52730;SDS011;38624;53.242;6.974;2023-10-19T01:12:25;22.95;;;16.40;;
52730;SDS011;38624;53.242;6.974;2023-10-19T01:17:58;27.80;;;17.85;;
52730;SDS011;38624;53.242;6.974;2023-10-19T01:20:27;27.33;;;17.90;;
52730;SDS011;38624;53.242;6.974;2023-10-19T01:23:00;26.60;;;17.60;;
52730;SDS011;38624;53.242;6.974;2023-10-19T01:25:54;27.20;;;17.70;;
52730;SDS011;38624;53.242;6.974;2023-10-19T01:28:23;27.38;;;17.58;;
52730;SDS011;38624;53.242;6.974;2023-10-19T01:31:21;26.25;;;17.42;;
52730;SDS011;38624;53.242;6.974;2023-10-19T01:33:52;24.40;;;17.23;;
52730;SDS011;38624;53.242;6.974;2023-10-19T01:36:22;30.27;;;18.60;;
52730;SDS011;38624;53.242;6.974;2023-10-19T01:38:49;28.77;;;19.00;;
52730;SDS011;38624;53.242;6.974;2023-10-19T01:41:18;28.48;;;17.80;;
52730;SDS011;38624;53.242;6.974;2023-10-19T01:43:45;30.42;;;19.17;;
52730;SDS011;38624;53.242;6.974;2023-10-19T01:46:13;26.77;;;17.60;;
52730;SDS011;38624;53.242;6.974;2023-10-19T01:48:47;30.55;;;18.35;;
52730;SDS011;38624;53.242;6.974;2023-10-19T01:51:15;29.67;;;18.65;;
52730;SDS011;38624;53.242;6.974;2023-10-19T01:53:42;28.83;;;18.45;;
52730;SDS011;38624;53.242;6.974;2023-10-19T01:56:11;31.98;;;19.25;;
52730;SDS011;38624;53.242;6.974;2023-10-19T01:58:39;31.60;;;19.48;;
52730;SDS011;38624;53.242;6.974;2023-10-19T02:03:41;29.88;;;18.98;;
52730;SDS011;38624;53.242;6.974;2023-10-19T02:06:11;33.20;;;20.02;;
52730;SDS011;38624;53.242;6.974;2023-10-19T02:08:56;32.42;;;20.05;;
52730;SDS011;38624;53.242;6.974;2023-10-19T02:11:25;30.25;;;17.98;;
52730;SDS011;38624;53.242;6.974;2023-10-19T02:13:52;30.23;;;19.20;;
52730;SDS011;38624;53.242;6.974;2023-10-19T02:16:20;29.25;;;19.05;;
52730;SDS011;38624;53.242;6.974;2023-10-19T02:18:50;31.52;;;19.17;;
52730;SDS011;38624;53.242;6.974;2023-10-19T02:21:16;21.98;;;14.35;;
52730;SDS011;38624;53.242;6.974;2023-10-19T02:23:52;33.17;;;20.63;;
52730;SDS011;38624;53.242;6.974;2023-10-19T02:26:21;39.55;;;20.40;;
52730;SDS011;38624;53.242;6.974;2023-10-19T02:28:53;28.15;;;17.83;;
52730;SDS011;38624;53.242;6.974;2023-10-19T02:31:21;27.75;;;18.02;;
52730;SDS011;38624;53.242;6.974;2023-10-19T02:33:51;26.88;;;18.13;;
52730;SDS011;38624;53.242;6.974;2023-10-19T02:36:24;29.70;;;18.90;;
52730;SDS011;38624;53.242;6.974;2023-10-19T02:41:29;33.15;;;18.77;;
52730;SDS011;38624;53.242;6.974;2023-10-19T02:43:55;29.83;;;18.65;;
52730;SDS011;38624;53.242;6.974;2023-10-19T02:46:30;29.52;;;18.75;;
52730;SDS011;38624;53.242;6.974;2023-10-19T02:51:30;29.83;;;17.58;;
52730;SDS011;38624;53.242;6.974;2023-10-19T02:53:56;27.43;;;18.87;;
52730;SDS011;38624;53.242;6.974;2023-10-19T02:56:25;29.08;;;17.98;;
52730;SDS011;38624;53.242;6.974;2023-10-19T02:58:52;27.00;;;17.65;;
52730;SDS011;38624;53.242;6.974;2023-10-19T03:01:18;26.95;;;17.70;;
52730;SDS011;38624;53.242;6.974;2023-10-19T03:03:48;26.73;;;17.63;;
52730;SDS011;38624;53.242;6.974;2023-10-19T03:06:19;28.90;;;18.30;;
52730;SDS011;38624;53.242;6.974;2023-10-19T03:08:46;26.55;;;16.92;;
52730;SDS011;38624;53.242;6.974;2023-10-19T03:11:13;25.23;;;16.98;;
52730;SDS011;38624;53.242;6.974;2023-10-19T03:13:40;23.88;;;16.02;;
52730;SDS011;38624;53.242;6.974;2023-10-19T03:16:08;27.13;;;16.40;;
52730;SDS011;38624;53.242;6.974;2023-10-19T03:18:35;21.55;;;14.95;;
52730;SDS011;38624;53.242;6.974;2023-10-19T03:21:01;25.23;;;16.17;;
52730;SDS011;38624;53.242;6.974;2023-10-19T03:23:28;21.80;;;15.82;;
52730;SDS011;38624;53.242;6.974;2023-10-19T03:25:54;22.33;;;15.63;;
52730;SDS011;38624;53.242;6.974;2023-10-19T03:28:26;23.13;;;15.45;;
52730;SDS011;38624;53.242;6.974;2023-10-19T03:30:54;17.45;;;13.35;;
52730;SDS011;38624;53.242;6.974;2023-10-19T03:33:20;20.90;;;14.93;;
52730;SDS011;38624;53.242;6.974;2023-10-19T03:35:51;18.85;;;13.82;;
52730;SDS011;38624;53.242;6.974;2023-10-19T03:38:19;23.70;;;14.80;;
52730;SDS011;38624;53.242;6.974;2023-10-19T03:40:48;21.48;;;15.25;;
52730;SDS011;38624;53.242;6.974;2023-10-19T03:43:17;20.20;;;13.40;;
52730;SDS011;38624;53.242;6.974;2023-10-19T03:45:46;19.98;;;13.75;;
52730;SDS011;38624;53.242;6.974;2023-10-19T03:48:18;21.77;;;14.73;;
52730;SDS011;38624;53.242;6.974;2023-10-19T03:50:59;21.02;;;13.90;;
52730;SDS011;38624;53.242;6.974;2023-10-19T03:53:27;19.75;;;13.70;;
52730;SDS011;38624;53.242;6.974;2023-10-19T03:55:53;19.33;;;13.65;;
52730;SDS011;38624;53.242;6.974;2023-10-19T03:58:20;21.05;;;13.75;;
52730;SDS011;38624;53.242;6.974;2023-10-19T04:00:47;19.23;;;13.20;;
52730;SDS011;38624;53.242;6.974;2023-10-19T04:03:16;19.30;;;13.02;;
52730;SDS011;38624;53.242;6.974;2023-10-19T04:05:49;14.05;;;10.45;;
52730;SDS011;38624;53.242;6.974;2023-10-19T04:08:16;17.80;;;12.23;;
52730;SDS011;38624;53.242;6.974;2023-10-19T04:10:48;19.27;;;12.63;;
52730;SDS011;38624;53.242;6.974;2023-10-19T04:13:33;18.23;;;11.20;;
52730;SDS011;38624;53.242;6.974;2023-10-19T04:16:01;16.75;;;11.75;;
52730;SDS011;38624;53.242;6.974;2023-10-19T04:18:27;16.17;;;11.98;;
52730;SDS011;38624;53.242;6.974;2023-10-19T04:20:53;18.92;;;12.13;;
52730;SDS011;38624;53.242;6.974;2023-10-19T04:23:19;16.70;;;11.55;;
52730;SDS011;38624;53.242;6.974;2023-10-19T04:25:52;17.38;;;11.35;;
52730;SDS011;38624;53.242;6.974;2023-10-19T04:28:21;16.50;;;11.07;;
52730;SDS011;38624;53.242;6.974;2023-10-19T04:30:58;15.45;;;10.43;;
52730;SDS011;38624;53.242;6.974;2023-10-19T04:33:31;17.52;;;11.48;;
52730;SDS011;38624;53.242;6.974;2023-10-19T04:35:59;14.65;;;9.80;;
52730;SDS011;38624;53.242;6.974;2023-10-19T04:38:28;21.08;;;10.70;;
52730;SDS011;38624;53.242;6.974;2023-10-19T04:41:02;14.25;;;9.60;;
52730;SDS011;38624;53.242;6.974;2023-10-19T04:43:32;14.35;;;9.68;;
52730;SDS011;38624;53.242;6.974;2023-10-19T04:45:58;11.00;;;8.02;;
52730;SDS011;38624;53.242;6.974;2023-10-19T04:48:24;15.88;;;10.25;;
52730;SDS011;38624;53.242;6.974;2023-10-19T04:50:49;15.88;;;10.00;;
52730;SDS011;38624;53.242;6.974;2023-10-19T04:53:15;14.93;;;9.80;;
52730;SDS011;38624;53.242;6.974;2023-10-19T04:55:41;16.23;;;9.52;;
52730;SDS011;38624;53.242;6.974;2023-10-19T04:58:07;16.40;;;10.20;;
52730;SDS011;38624;53.242;6.974;2023-10-19T05:00:32;15.13;;;10.18;;
52730;SDS011;38624;53.242;6.974;2023-10-19T05:02:58;16.20;;;9.88;;
52730;SDS011;38624;53.242;6.974;2023-10-19T05:05:24;17.20;;;9.57;;
52730;SDS011;38624;53.242;6.974;2023-10-19T05:07:49;14.30;;;9.48;;
52730;SDS011;38624;53.242;6.974;2023-10-19T05:10:15;14.38;;;9.68;;
52730;SDS011;38624;53.242;6.974;2023-10-19T05:12:41;14.43;;;9.05;;
52730;SDS011;38624;53.242;6.974;2023-10-19T05:15:07;14.52;;;9.30;;
52730;SDS011;38624;53.242;6.974;2023-10-19T05:17:33;12.75;;;8.43;;
52730;SDS011;38624;53.242;6.974;2023-10-19T05:19:59;13.95;;;9.48;;
52730;SDS011;38624;53.242;6.974;2023-10-19T05:22:24;12.02;;;8.25;;
52730;SDS011;38624;53.242;6.974;2023-10-19T05:24:54;14.95;;;8.68;;
52730;SDS011;38624;53.242;6.974;2023-10-19T05:27:20;11.77;;;7.78;;
52730;SDS011;38624;53.242;6.974;2023-10-19T05:29:45;10.88;;;7.97;;
52730;SDS011;38624;53.242;6.974;2023-10-19T05:32:11;8.50;;;6.03;;
52730;SDS011;38624;53.242;6.974;2023-10-19T05:34:37;10.30;;;7.03;;
52730;SDS011;38624;53.242;6.974;2023-10-19T05:37:02;7.75;;;6.00;;
52730;SDS011;38624;53.242;6.974;2023-10-19T05:39:30;11.45;;;7.15;;
52730;SDS011;38624;53.242;6.974;2023-10-19T05:41:56;12.53;;;7.73;;
52730;SDS011;38624;53.242;6.974;2023-10-19T05:44:25;12.85;;;8.07;;
52730;SDS011;38624;53.242;6.974;2023-10-19T05:46:52;13.75;;;7.70;;
52730;SDS011;38624;53.242;6.974;2023-10-19T05:49:19;10.20;;;7.10;;
52730;SDS011;38624;53.242;6.974;2023-10-19T05:51:45;9.55;;;6.82;;
52730;SDS011;38624;53.242;6.974;2023-10-19T05:54:11;9.82;;;7.28;;
52730;SDS011;38624;53.242;6.974;2023-10-19T05:56:37;10.10;;;6.43;;
52730;SDS011;38624;53.242;6.974;2023-10-19T05:59:03;9.05;;;5.85;;
52730;SDS011;38624;53.242;6.974;2023-10-19T06:01:29;8.73;;;6.07;;
52730;SDS011;38624;53.242;6.974;2023-10-19T06:03:55;8.50;;;5.80;;
52730;SDS011;38624;53.242;6.974;2023-10-19T06:06:21;9.35;;;6.07;;
52730;SDS011;38624;53.242;6.974;2023-10-19T06:08:47;7.70;;;6.10;;
52730;SDS011;38624;53.242;6.974;2023-10-19T06:13:40;9.70;;;6.22;;
52730;SDS011;38624;53.242;6.974;2023-10-19T06:16:06;8.00;;;5.95;;
52730;SDS011;38624;53.242;6.974;2023-10-19T06:18:31;7.93;;;5.72;;
52730;SDS011;38624;53.242;6.974;2023-10-19T06:20:57;7.65;;;6.05;;
52730;SDS011;38624;53.242;6.974;2023-10-19T06:23:22;8.55;;;6.25;;
52730;SDS011;38624;53.242;6.974;2023-10-19T06:25:48;8.32;;;6.30;;
52730;SDS011;38624;53.242;6.974;2023-10-19T06:28:16;7.53;;;5.97;;
52730;SDS011;38624;53.242;6.974;2023-10-19T06:30:42;7.43;;;5.90;;
52730;SDS011;38624;53.242;6.974;2023-10-19T06:33:08;7.47;;;5.53;;
52730;SDS011;38624;53.242;6.974;2023-10-19T06:35:34;8.77;;;6.03;;
52730;SDS011;38624;53.242;6.974;2023-10-19T06:38:02;12.13;;;6.88;;
52730;SDS011;38624;53.242;6.974;2023-10-19T06:40:29;9.10;;;6.85;;
52730;SDS011;38624;53.242;6.974;2023-10-19T06:42:56;9.77;;;6.57;;
52730;SDS011;38624;53.242;6.974;2023-10-19T06:45:22;8.77;;;6.50;;
52730;SDS011;38624;53.242;6.974;2023-10-19T06:47:50;8.70;;;6.03;;
52730;SDS011;38624;53.242;6.974;2023-10-19T06:50:17;8.38;;;6.10;;
52730;SDS011;38624;53.242;6.974;2023-10-19T06:52:47;7.25;;;5.60;;
52730;SDS011;38624;53.242;6.974;2023-10-19T06:55:14;8.50;;;6.25;;
52730;SDS011;38624;53.242;6.974;2023-10-19T06:57:44;10.80;;;6.20;;
52730;SDS011;38624;53.242;6.974;2023-10-19T07:00:10;9.63;;;6.40;;
52730;SDS011;38624;53.242;6.974;2023-10-19T07:02:44;9.25;;;5.65;;
52730;SDS011;38624;53.242;6.974;2023-10-19T07:05:11;7.53;;;4.93;;
52730;SDS011;38624;53.242;6.974;2023-10-19T07:07:40;6.28;;;4.68;;
52730;SDS011;38624;53.242;6.974;2023-10-19T07:10:07;8.15;;;5.90;;
52730;SDS011;38624;53.242;6.974;2023-10-19T07:12:34;7.28;;;4.50;;
52730;SDS011;38624;53.242;6.974;2023-10-19T07:15:02;7.18;;;5.43;;
52730;SDS011;38624;53.242;6.974;2023-10-19T07:17:32;6.68;;;5.18;;
52730;SDS011;38624;53.242;6.974;2023-10-19T07:22:25;6.72;;;5.07;;
52730;SDS011;38624;53.242;6.974;2023-10-19T07:24:50;7.07;;;5.05;;
52730;SDS011;38624;53.242;6.974;2023-10-19T07:27:16;7.70;;;4.93;;
52730;SDS011;38624;53.242;6.974;2023-10-19T07:29:45;6.53;;;4.85;;
52730;SDS011;38624;53.242;6.974;2023-10-19T07:32:12;6.00;;;4.57;;
52730;SDS011;38624;53.242;6.974;2023-10-19T07:34:39;6.22;;;4.65;;
52730;SDS011;38624;53.242;6.974;2023-10-19T07:37:05;8.38;;;5.00;;
52730;SDS011;38624;53.242;6.974;2023-10-19T07:39:32;5.63;;;4.80;;
52730;SDS011;38624;53.242;6.974;2023-10-19T07:41:59;9.82;;;5.15;;
52730;SDS011;38624;53.242;6.974;2023-10-19T07:44:24;6.60;;;4.60;;
52730;SDS011;38624;53.242;6.974;2023-10-19T07:46:51;5.88;;;4.72;;
52730;SDS011;38624;53.242;6.974;2023-10-19T07:49:18;6.35;;;5.07;;
52730;SDS011;38624;53.242;6.974;2023-10-19T07:51:45;7.60;;;4.78;;
52730;SDS011;38624;53.242;6.974;2023-10-19T07:54:14;5.75;;;4.38;;
52730;SDS011;38624;53.242;6.974;2023-10-19T07:56:41;5.72;;;4.35;;
52730;SDS011;38624;53.242;6.974;2023-10-19T07:59:07;6.33;;;4.23;;
52730;SDS011;38624;53.242;6.974;2023-10-19T08:01:33;6.25;;;4.85;;
52730;SDS011;38624;53.242;6.974;2023-10-19T08:03:58;6.00;;;4.32;;
52730;SDS011;38624;53.242;6.974;2023-10-19T08:06:24;6.93;;;4.97;;
52730;SDS011;38624;53.242;6.974;2023-10-19T08:08:51;6.28;;;4.18;;
52730;SDS011;38624;53.242;6.974;2023-10-19T08:11:18;6.18;;;4.80;;
52730;SDS011;38624;53.242;6.974;2023-10-19T08:13:43;5.97;;;4.80;;
52730;SDS011;38624;53.242;6.974;2023-10-19T08:16:09;6.63;;;5.20;;
52730;SDS011;38624;53.242;6.974;2023-10-19T08:18:37;6.50;;;4.75;;
52730;SDS011;38624;53.242;6.974;2023-10-19T08:21:03;4.88;;;4.00;;
52730;SDS011;38624;53.242;6.974;2023-10-19T08:23:28;4.25;;;3.55;;
52730;SDS011;38624;53.242;6.974;2023-10-19T08:25:56;5.75;;;4.55;;
52730;SDS011;38624;53.242;6.974;2023-10-19T08:28:23;6.65;;;4.75;;
52730;SDS011;38624;53.242;6.974;2023-10-19T08:30:49;4.65;;;4.13;;
52730;SDS011;38624;53.242;6.974;2023-10-19T08:35:54;6.65;;;4.30;;
52730;SDS011;38624;53.242;6.974;2023-10-19T08:40:48;4.90;;;3.58;;
52730;SDS011;38624;53.242;6.974;2023-10-19T08:43:14;4.80;;;4.30;;
52730;SDS011;38624;53.242;6.974;2023-10-19T08:45:43;5.68;;;4.60;;
52730;SDS011;38624;53.242;6.974;2023-10-19T08:48:09;5.05;;;3.90;;
52730;SDS011;38624;53.242;6.974;2023-10-19T08:50:36;4.55;;;3.90;;
52730;SDS011;38624;53.242;6.974;2023-10-19T08:53:03;5.30;;;4.20;;
52730;SDS011;38624;53.242;6.974;2023-10-19T08:55:33;5.95;;;4.70;;
52730;SDS011;38624;53.242;6.974;2023-10-19T08:58:02;6.00;;;4.32;;
52730;SDS011;38624;53.242;6.974;2023-10-19T09:00:37;5.18;;;4.50;;
52730;SDS011;38624;53.242;6.974;2023-10-19T09:03:16;8.43;;;4.47;;
52730;SDS011;38624;53.242;6.974;2023-10-19T09:05:42;5.57;;;4.90;;
52730;SDS011;38624;53.242;6.974;2023-10-19T09:08:13;4.03;;;3.63;;
52730;SDS011;38624;53.242;6.974;2023-10-19T09:10:43;5.70;;;4.70;;
52730;SDS011;38624;53.242;6.974;2023-10-19T09:13:13;5.50;;;4.80;;
52730;SDS011;38624;53.242;6.974;2023-10-19T09:15:43;5.70;;;4.85;;
52730;SDS011;38624;53.242;6.974;2023-10-19T09:18:16;5.28;;;4.72;;
52730;SDS011;38624;53.242;6.974;2023-10-19T09:20:47;6.27;;;4.90;;
52730;SDS011;38624;53.242;6.974;2023-10-19T09:25:56;5.43;;;4.63;;
52730;SDS011;38624;53.242;6.974;2023-10-19T09:28:23;5.63;;;4.45;;
52730;SDS011;38624;53.242;6.974;2023-10-19T09:30:49;5.85;;;4.60;;
52730;SDS011;38624;53.242;6.974;2023-10-19T09:33:16;5.95;;;5.07;;
52730;SDS011;38624;53.242;6.974;2023-10-19T09:35:44;4.95;;;4.20;;
52730;SDS011;38624;53.242;6.974;2023-10-19T09:38:13;5.57;;;4.97;;
52730;SDS011;38624;53.242;6.974;2023-10-19T09:43:12;5.68;;;4.80;;
52730;SDS011;38624;53.242;6.974;2023-10-19T09:45:41;5.60;;;4.93;;
52730;SDS011;38624;53.242;6.974;2023-10-19T09:48:15;5.30;;;4.65;;
52730;SDS011;38624;53.242;6.974;2023-10-19T09:53:09;5.45;;;4.95;;
52730;SDS011;38624;53.242;6.974;2023-10-19T09:55:37;6.20;;;5.60;;
52730;SDS011;38624;53.242;6.974;2023-10-19T09:58:09;5.93;;;5.32;;
52730;SDS011;38624;53.242;6.974;2023-10-19T10:00:43;6.88;;;5.95;;
52730;SDS011;38624;53.242;6.974;2023-10-19T10:03:55;6.45;;;5.85;;
52730;SDS011;38624;53.242;6.974;2023-10-19T10:06:10;6.60;;;5.70;;
52730;SDS011;38624;53.242;6.974;2023-10-19T10:08:45;7.63;;;6.10;;
52730;SDS011;38624;53.242;6.974;2023-10-19T10:11:16;7.03;;;6.13;;
52730;SDS011;38624;53.242;6.974;2023-10-19T10:13:44;6.53;;;5.90;;
52730;SDS011;38624;53.242;6.974;2023-10-19T10:16:12;7.60;;;6.10;;
52730;SDS011;38624;53.242;6.974;2023-10-19T10:18:40;7.75;;;6.10;;
52730;SDS011;38624;53.242;6.974;2023-10-19T10:21:08;6.47;;;5.78;;
52730;SDS011;38624;53.242;6.974;2023-10-19T10:23:41;7.13;;;5.50;;
52730;SDS011;38624;53.242;6.974;2023-10-19T10:26:15;6.50;;;5.90;;
52730;SDS011;38624;53.242;6.974;2023-10-19T10:28:45;7.55;;;4.95;;
52730;SDS011;38624;53.242;6.974;2023-10-19T10:31:21;5.20;;;4.70;;
52730;SDS011;38624;53.242;6.974;2023-10-19T10:33:51;5.60;;;5.00;;
52730;SDS011;38624;53.242;6.974;2023-10-19T10:36:19;5.57;;;4.93;;
52730;SDS011;38624;53.242;6.974;2023-10-19T10:38:46;5.88;;;5.28;;
52730;SDS011;38624;53.242;6.974;2023-10-19T10:41:20;6.00;;;5.30;;
52730;SDS011;38624;53.242;6.974;2023-10-19T10:43:53;5.28;;;4.72;;
52730;SDS011;38624;53.242;6.974;2023-10-19T10:46:24;5.20;;;4.70;;
52730;SDS011;38624;53.242;6.974;2023-10-19T10:48:52;6.93;;;5.22;;
52730;SDS011;38624;53.242;6.974;2023-10-19T10:51:28;5.72;;;5.20;;
52730;SDS011;38624;53.242;6.974;2023-10-19T10:53:54;6.13;;;5.53;;
52730;SDS011;38624;53.242;6.974;2023-10-19T10:56:21;6.30;;;5.65;;
52730;SDS011;38624;53.242;6.974;2023-10-19T10:58:48;5.88;;;5.30;;
52730;SDS011;38624;53.242;6.974;2023-10-19T11:01:15;6.68;;;6.05;;
52730;SDS011;38624;53.242;6.974;2023-10-19T11:04:04;5.97;;;5.10;;
52730;SDS011;38624;53.242;6.974;2023-10-19T11:06:48;7.32;;;5.57;;
52730;SDS011;38624;53.242;6.974;2023-10-19T11:09:14;6.60;;;5.97;;
52730;SDS011;38624;53.242;6.974;2023-10-19T11:11:44;5.35;;;4.72;;
52730;SDS011;38624;53.242;6.974;2023-10-19T11:16:36;6.00;;;4.72;;
52730;SDS011;38624;53.242;6.974;2023-10-19T11:19:04;5.20;;;4.70;;
52730;SDS011;38624;53.242;6.974;2023-10-19T11:21:30;5.93;;;4.55;;
52730;SDS011;38624;53.242;6.974;2023-10-19T11:23:56;6.15;;;4.95;;
52730;SDS011;38624;53.242;6.974;2023-10-19T11:26:22;4.78;;;4.25;;
52730;SDS011;38624;53.242;6.974;2023-10-19T11:29:01;5.13;;;4.53;;
52730;SDS011;38624;53.242;6.974;2023-10-19T11:31:30;5.70;;;4.38;;
52730;SDS011;38624;53.242;6.974;2023-10-19T11:34:06;5.82;;;4.20;;
52730;SDS011;38624;53.242;6.974;2023-10-19T11:36:33;6.13;;;4.40;;
52730;SDS011;38624;53.242;6.974;2023-10-19T11:38:59;6.78;;;4.82;;
52730;SDS011;38624;53.242;6.974;2023-10-19T11:41:25;5.82;;;4.57;;
52730;SDS011;38624;53.242;6.974;2023-10-19T11:43:51;5.20;;;4.60;;
52730;SDS011;38624;53.242;6.974;2023-10-19T11:46:17;5.60;;;5.05;;
52730;SDS011;38624;53.242;6.974;2023-10-19T11:48:43;3.67;;;3.28;;
52730;SDS011;38624;53.242;6.974;2023-10-19T11:51:09;4.72;;;4.22;;
52730;SDS011;38624;53.242;6.974;2023-10-19T11:56:03;7.50;;;4.47;;
52730;SDS011;38624;53.242;6.974;2023-10-19T11:58:31;6.35;;;4.45;;
52730;SDS011;38624;53.242;6.974;2023-10-19T12:01:00;9.25;;;5.05;;
52730;SDS011;38624;53.242;6.974;2023-10-19T12:03:29;6.50;;;4.68;;
52730;SDS011;38624;53.242;6.974;2023-10-19T12:05:55;5.68;;;4.57;;
52730;SDS011;38624;53.242;6.974;2023-10-19T12:08:21;6.00;;;4.38;;
52730;SDS011;38624;53.242;6.974;2023-10-19T12:10:49;5.72;;;4.93;;
52730;SDS011;38624;53.242;6.974;2023-10-19T12:13:15;5.90;;;4.80;;
52730;SDS011;38624;53.242;6.974;2023-10-19T12:15:42;7.00;;;4.60;;
52730;SDS011;38624;53.242;6.974;2023-10-19T12:18:16;6.40;;;4.55;;
52730;SDS011;38624;53.242;6.974;2023-10-19T12:20:44;7.25;;;4.70;;
52730;SDS011;38624;53.242;6.974;2023-10-19T12:23:11;7.38;;;4.90;;
52730;SDS011;38624;53.242;6.974;2023-10-19T12:25:37;4.90;;;4.40;;
52730;SDS011;38624;53.242;6.974;2023-10-19T12:28:03;6.20;;;3.75;;
52730;SDS011;38624;53.242;6.974;2023-10-19T12:30:29;9.45;;;5.18;;
52730;SDS011;38624;53.242;6.974;2023-10-19T12:33:02;5.72;;;5.00;;
52730;SDS011;38624;53.242;6.974;2023-10-19T12:35:33;5.82;;;4.32;;
52730;SDS011;38624;53.242;6.974;2023-10-19T12:38:16;6.05;;;4.60;;
52730;SDS011;38624;53.242;6.974;2023-10-19T12:40:46;5.90;;;4.55;;
52730;SDS011;38624;53.242;6.974;2023-10-19T12:43:13;7.32;;;4.47;;
52730;SDS011;38624;53.242;6.974;2023-10-19T12:45:40;6.30;;;4.15;;
52730;SDS011;38624;53.242;6.974;2023-10-19T12:48:06;5.97;;;4.68;;
52730;SDS011;38624;53.242;6.974;2023-10-19T12:50:36;6.13;;;4.50;;
52730;SDS011;38624;53.242;6.974;2023-10-19T12:53:03;6.53;;;4.57;;
52730;SDS011;38624;53.242;6.974;2023-10-19T12:55:29;6.50;;;4.45;;
52730;SDS011;38624;53.242;6.974;2023-10-19T12:57:59;5.43;;;4.30;;
52730;SDS011;38624;53.242;6.974;2023-10-19T13:00:32;5.82;;;4.28;;
52730;SDS011;38624;53.242;6.974;2023-10-19T13:03:09;7.50;;;4.25;;
52730;SDS011;38624;53.242;6.974;2023-10-19T13:05:42;5.50;;;3.90;;
52730;SDS011;38624;53.242;6.974;2023-10-19T13:08:13;6.30;;;4.03;;
52730;SDS011;38624;53.242;6.974;2023-10-19T13:10:40;6.25;;;4.47;;
52730;SDS011;38624;53.242;6.974;2023-10-19T13:13:10;7.13;;;3.97;;
52730;SDS011;38624;53.242;6.974;2023-10-19T13:15:37;5.53;;;4.22;;
52730;SDS011;38624;53.242;6.974;2023-10-19T13:18:07;9.23;;;4.40;;
52730;SDS011;38624;53.242;6.974;2023-10-19T13:20:35;7.15;;;4.30;;
52730;SDS011;38624;53.242;6.974;2023-10-19T13:25:31;6.50;;;3.92;;
52730;SDS011;38624;53.242;6.974;2023-10-19T13:28:10;7.50;;;4.60;;
52730;SDS011;38624;53.242;6.974;2023-10-19T13:30:42;6.25;;;4.63;;
52730;SDS011;38624;53.242;6.974;2023-10-19T13:33:12;6.60;;;4.20;;
52730;SDS011;38624;53.242;6.974;2023-10-19T13:35:39;6.75;;;4.13;;
52730;SDS011;38624;53.242;6.974;2023-10-19T13:38:07;6.70;;;4.50;;
52730;SDS011;38624;53.242;6.974;2023-10-19T13:43:03;4.97;;;4.22;;
52730;SDS011;38624;53.242;6.974;2023-10-19T13:45:31;4.97;;;3.75;;
52730;SDS011;38624;53.242;6.974;2023-10-19T13:47:58;5.30;;;4.80;;
52730;SDS011;38624;53.242;6.974;2023-10-19T13:50:25;4.68;;;3.53;;
52730;SDS011;38624;53.242;6.974;2023-10-19T13:52:54;7.18;;;4.57;;
52730;SDS011;38624;53.242;6.974;2023-10-19T13:55:24;5.70;;;3.83;;
52730;SDS011;38624;53.242;6.974;2023-10-19T13:57:50;7.35;;;4.65;;
52730;SDS011;38624;53.242;6.974;2023-10-19T14:00:17;6.67;;;4.23;;
52730;SDS011;38624;53.242;6.974;2023-10-19T14:03:10;6.18;;;3.50;;
52730;SDS011;38624;53.242;6.974;2023-10-19T14:05:44;5.50;;;4.55;;
52730;SDS011;38624;53.242;6.974;2023-10-19T14:08:13;6.15;;;4.95;;
52730;SDS011;38624;53.242;6.974;2023-10-19T14:10:40;7.18;;;5.40;;
52730;SDS011;38624;53.242;6.974;2023-10-19T14:13:07;6.82;;;5.03;;
52730;SDS011;38624;53.242;6.974;2023-10-19T14:15:33;7.03;;;5.90;;
52730;SDS011;38624;53.242;6.974;2023-10-19T14:18:01;9.07;;;5.13;;
52730;SDS011;38624;53.242;6.974;2023-10-19T14:20:30;6.93;;;5.05;;
52730;SDS011;38624;53.242;6.974;2023-10-19T14:22:59;8.52;;;5.78;;
52730;SDS011;38624;53.242;6.974;2023-10-19T14:25:25;8.50;;;5.55;;
52730;SDS011;38624;53.242;6.974;2023-10-19T14:27:52;8.70;;;5.73;;
52730;SDS011;38624;53.242;6.974;2023-10-19T14:30:24;7.50;;;5.50;;
52730;SDS011;38624;53.242;6.974;2023-10-19T14:32:53;6.60;;;5.22;;
52730;SDS011;38624;53.242;6.974;2023-10-19T14:35:20;8.27;;;6.00;;
52730;SDS011;38624;53.242;6.974;2023-10-19T14:37:47;10.77;;;6.53;;
52730;SDS011;38624;53.242;6.974;2023-10-19T14:40:18;9.93;;;6.50;;
52730;SDS011;38624;53.242;6.974;2023-10-19T14:42:46;10.10;;;6.45;;
52730;SDS011;38624;53.242;6.974;2023-10-19T14:45:13;9.75;;;7.13;;
52730;SDS011;38624;53.242;6.974;2023-10-19T14:47:41;10.02;;;6.80;;
52730;SDS011;38624;53.242;6.974;2023-10-19T14:50:11;9.77;;;7.30;;
52730;SDS011;38624;53.242;6.974;2023-10-19T14:52:42;10.10;;;6.68;;
52730;SDS011;38624;53.242;6.974;2023-10-19T14:55:09;12.38;;;8.82;;
52730;SDS011;38624;53.242;6.974;2023-10-19T14:57:35;14.18;;;8.25;;
52730;SDS011;38624;53.242;6.974;2023-10-19T15:00:05;11.07;;;7.63;;
52730;SDS011;38624;53.242;6.974;2023-10-19T15:02:47;12.25;;;8.27;;
52730;SDS011;38624;53.242;6.974;2023-10-19T15:05:19;15.30;;;8.52;;
52730;SDS011;38624;53.242;6.974;2023-10-19T15:07:46;12.02;;;8.68;;
52730;SDS011;38624;53.242;6.974;2023-10-19T15:10:23;16.70;;;9.50;;
52730;SDS011;38624;53.242;6.974;2023-10-19T15:12:50;14.68;;;8.88;;
52730;SDS011;38624;53.242;6.974;2023-10-19T15:15:16;12.43;;;9.32;;
52730;SDS011;38624;53.242;6.974;2023-10-19T15:17:46;13.38;;;9.63;;
52730;SDS011;38624;53.242;6.974;2023-10-19T15:20:13;12.00;;;9.45;;
52730;SDS011;38624;53.242;6.974;2023-10-19T15:22:43;13.95;;;9.48;;
52730;SDS011;38624;53.242;6.974;2023-10-19T15:25:10;12.43;;;9.10;;
52730;SDS011;38624;53.242;6.974;2023-10-19T15:27:44;13.70;;;9.93;;
52730;SDS011;38624;53.242;6.974;2023-10-19T15:30:10;17.50;;;10.32;;
52730;SDS011;38624;53.242;6.974;2023-10-19T15:32:37;13.77;;;9.60;;